Time;durP1;ratioP1;P1;durP2;ratioP2;P2;SDS_P1;SDS_P2;PMS_P1;PMS_P2;Temp;Humidity;BMP_temperature;BMP_pressure;BME280_temperature;BME280_humidity;BME280_pressure;Samples;Min_cycle;Max_cycle;Signal;HPM_P1;HPM_P2
2022/04/09 00:01:49;;;;;;;14.70;4.00;;;5.70;99.90;;;;;;5052332;28;20169;-64
2022/04/09 00:04:14;;;;;;;10.03;4.70;;;5.80;99.90;;;;;;5052473;28;20202;-65
2022/04/09 00:06:42;;;;;;;13.17;4.00;;;5.70;99.90;;;;;;5052846;28;20232;-65
2022/04/09 00:09:07;;;;;;;9.87;4.23;;;5.70;99.90;;;;;;5052394;28;20589;-64
2022/04/09 00:11:33;;;;;;;5.43;4.00;;;5.80;99.90;;;;;;5052123;28;20173;-64
2022/04/09 00:13:58;;;;;;;11.90;4.30;;;5.80;99.90;;;;;;5055165;28;20216;-64
2022/04/09 00:16:24;;;;;;;8.37;4.00;;;5.90;99.90;;;;;;5056627;28;20173;-65
2022/04/09 00:18:50;;;;;;;11.30;4.23;;;5.90;99.90;;;;;;5056276;28;20177;-64
2022/04/09 00:21:15;;;;;;;10.27;4.43;;;5.90;99.90;;;;;;5056638;28;20181;-65
2022/04/09 00:23:41;;;;;;;14.83;4.40;;;5.90;99.90;;;;;;5056128;28;20204;-64
2022/04/09 00:26:06;;;;;;;18.07;5.10;;;5.80;99.90;;;;;;5056058;28;20177;-64
2022/04/09 00:28:32;;;;;;;8.53;4.23;;;5.80;99.90;;;;;;5056340;28;20632;-64
2022/04/09 00:30:57;;;;;;;13.40;4.73;;;5.80;99.90;;;;;;5056391;28;20177;-65
2022/04/09 00:33:23;;;;;;;16.17;4.00;;;5.80;99.90;;;;;;5055990;28;20197;-64
2022/04/09 00:35:49;;;;;;;14.90;3.60;;;5.80;99.90;;;;;;5056097;28;20177;-63
2022/04/09 00:38:14;;;;;;;13.43;4.17;;;5.70;99.90;;;;;;5056224;28;20205;-64
2022/04/09 00:40:40;;;;;;;16.57;3.87;;;5.70;99.90;;;;;;5055910;28;20181;-64
2022/04/09 00:43:05;;;;;;;9.90;3.90;;;5.70;99.90;;;;;;5056093;28;20528;-62
2022/04/09 00:45:31;;;;;;;14.00;3.67;;;5.60;99.90;;;;;;5055836;28;20201;-63
2022/04/09 00:47:57;;;;;;;10.20;3.70;;;5.60;99.90;;;;;;5055811;28;20173;-63
2022/04/09 00:50:22;;;;;;;12.53;3.80;;;5.60;99.90;;;;;;5055849;28;20178;-63
2022/04/09 00:52:50;;;;;;;10.77;3.77;;;5.50;99.90;;;;;;5055977;28;20185;-64
2022/04/09 00:55:19;;;;;;;11.40;3.50;;;5.50;99.90;;;;;;5055123;28;20239;-65
2022/04/09 00:57:46;;;;;;;16.50;4.27;;;5.50;99.90;;;;;;5055768;28;20644;-63
2022/04/09 01:00:13;;;;;;;11.20;4.10;;;5.50;99.90;;;;;;5055735;28;20179;-64
2022/04/09 01:02:40;;;;;;;16.40;4.20;;;5.60;99.90;;;;;;5055644;28;20173;-63
2022/04/09 01:05:07;;;;;;;6.80;3.30;;;5.60;99.90;;;;;;5055605;28;20185;-63
2022/04/09 01:07:33;;;;;;;13.57;3.70;;;5.80;99.90;;;;;;5055549;28;20185;-65
2022/04/09 01:09:59;;;;;;;11.13;3.30;;;5.80;99.90;;;;;;5055255;28;20169;-65
2022/04/09 01:12:25;;;;;;;10.97;2.93;;;5.90;99.90;;;;;;5055501;28;20185;-64
2022/04/09 01:14:51;;;;;;;13.27;3.30;;;5.90;99.90;;;;;;5055392;28;20217;-65
2022/04/09 01:17:17;;;;;;;17.43;3.47;;;5.90;99.90;;;;;;5055521;28;20663;-64
2022/04/09 01:19:42;;;;;;;11.43;3.20;;;5.90;99.90;;;;;;5055195;28;20645;-64
2022/04/09 01:22:08;;;;;;;9.13;3.23;;;5.90;99.90;;;;;;5055207;28;20895;-62
2022/04/09 01:24:33;;;;;;;8.70;2.90;;;5.90;99.90;;;;;;5053744;28;20625;-63
2022/04/09 01:26:59;;;;;;;9.23;2.80;;;5.80;99.90;;;;;;5055333;28;20247;-64
2022/04/09 01:29:25;;;;;;;17.47;4.03;;;5.80;99.90;;;;;;5055323;28;20177;-64
2022/04/09 01:31:51;;;;;;;11.03;3.10;;;5.80;99.90;;;;;;5054781;28;20189;-64
2022/04/09 01:34:16;;;;;;;8.30;2.80;;;5.70;99.90;;;;;;5055017;28;20664;-63
2022/04/09 01:36:42;;;;;;;10.13;2.80;;;5.70;99.90;;;;;;5055066;28;20505;-64
2022/04/09 01:39:08;;;;;;;7.10;2.93;;;5.60;99.90;;;;;;5054643;28;20260;-64
2022/04/09 01:41:33;;;;;;;15.17;3.60;;;5.60;99.90;;;;;;5055000;28;20169;-64
2022/04/09 01:43:59;;;;;;;13.00;2.97;;;5.60;99.90;;;;;;5054943;28;20660;-62
2022/04/09 01:46:24;;;;;;;13.13;3.40;;;5.60;99.90;;;;;;5054701;28;20190;-63
2022/04/09 01:48:50;;;;;;;9.57;3.40;;;5.60;99.90;;;;;;5054749;28;20691;-62
2022/04/09 01:51:16;;;;;;;12.43;3.43;;;5.60;99.90;;;;;;5054629;28;20204;-63
2022/04/09 01:53:41;;;;;;;14.40;3.60;;;5.50;99.90;;;;;;5054440;28;20642;-64
2022/04/09 01:56:07;;;;;;;16.30;3.63;;;5.40;99.90;;;;;;5054558;28;20232;-65
2022/04/09 01:58:32;;;;;;;13.07;3.60;;;5.40;99.90;;;;;;5054994;28;20180;-64
2022/04/09 02:00:59;;;;;;;12.40;3.63;;;5.40;99.90;;;;;;5054423;28;20180;-63
2022/04/09 02:03:27;;;;;;;7.27;3.13;;;5.40;99.90;;;;;;5054380;28;20613;-64
2022/04/09 02:05:53;;;;;;;14.63;3.43;;;5.30;99.90;;;;;;5054007;28;20209;-66
2022/04/09 02:08:19;;;;;;;10.73;3.90;;;5.30;99.90;;;;;;5054286;28;20206;-63
2022/04/09 02:10:45;;;;;;;9.10;2.93;;;5.40;99.90;;;;;;5054476;28;20173;-62
2022/04/09 02:13:14;;;;;;;9.47;3.10;;;5.30;99.90;;;;;;5054489;28;20672;-64
2022/04/09 02:15:40;;;;;;;13.07;3.50;;;5.30;99.90;;;;;;5054040;28;20173;-63
2022/04/09 02:18:06;;;;;;;10.20;3.80;;;5.30;99.90;;;;;;5054302;28;20203;-63
2022/04/09 02:20:33;;;;;;;14.43;3.77;;;5.30;99.90;;;;;;5053984;28;20165;-63
2022/04/09 02:22:58;;;;;;;14.03;3.10;;;5.20;99.90;;;;;;5054201;28;20197;-63
2022/04/09 02:25:24;;;;;;;14.20;3.20;;;5.20;99.90;;;;;;5054085;28;20196;-64
2022/04/09 02:27:49;;;;;;;13.70;3.80;;;5.30;99.90;;;;;;5054014;28;20527;-64
2022/04/09 02:30:15;;;;;;;17.50;3.80;;;5.20;99.90;;;;;;5053766;28;20173;-64
2022/04/09 02:32:51;;;;;;;11.63;3.37;;;5.20;99.90;;;;;;5053913;28;20252;-63
2022/04/09 02:35:21;;;;;;;12.23;3.30;;;5.30;99.90;;;;;;5053102;28;20208;-64
2022/04/09 02:37:47;;;;;;;10.70;3.80;;;5.20;99.90;;;;;;5053889;28;20168;-64
2022/04/09 02:40:13;;;;;;;12.20;3.67;;;5.20;99.90;;;;;;5053814;28;20177;-63
2022/04/09 02:42:40;;;;;;;14.63;3.97;;;5.20;99.90;;;;;;5053584;28;20256;-64
2022/04/09 02:45:07;;;;;;;10.40;3.93;;;5.20;99.90;;;;;;5053652;28;20185;-63
2022/04/09 02:47:34;;;;;;;12.03;4.00;;;5.20;99.90;;;;;;5053673;28;20170;-63
2022/04/09 02:50:04;;;;;;;11.07;3.73;;;5.20;99.90;;;;;;5053152;28;20679;-65
2022/04/09 02:52:37;;;;;;;7.80;3.47;;;5.20;99.90;;;;;;5053631;28;20165;-63
2022/04/09 02:55:05;;;;;;;11.43;3.33;;;5.20;99.90;;;;;;5052921;28;20209;-64
2022/04/09 02:57:31;;;;;;;13.17;3.60;;;5.20;99.90;;;;;;5053613;28;20287;-64
2022/04/09 02:59:57;;;;;;;10.50;3.70;;;5.20;99.90;;;;;;5053663;28;20208;-63
2022/04/09 03:02:22;;;;;;;12.13;3.77;;;5.20;99.90;;;;;;5053588;28;20564;-63
2022/04/09 03:04:48;;;;;;;12.40;3.60;;;5.20;99.90;;;;;;5052978;28;20204;-64
2022/04/09 03:07:13;;;;;;;7.73;3.50;;;5.30;99.90;;;;;;5053292;28;20212;-63
2022/04/09 03:09:39;;;;;;;15.50;3.60;;;5.20;99.90;;;;;;5053412;28;20176;-64
2022/04/09 03:12:05;;;;;;;15.03;4.20;;;5.10;99.90;;;;;;5053498;28;20703;-64
2022/04/09 03:14:31;;;;;;;12.80;3.80;;;5.10;99.90;;;;;;5052892;28;20810;-63
2022/04/09 03:16:56;;;;;;;15.53;4.00;;;5.10;99.90;;;;;;5053133;28;20651;-63
2022/04/09 03:19:22;;;;;;;13.73;4.27;;;5.10;99.90;;;;;;5052750;28;20294;-63
2022/04/09 03:21:48;;;;;;;13.03;4.20;;;5.00;99.90;;;;;;5052708;28;20180;-63
2022/04/09 03:24:13;;;;;;;13.33;4.60;;;5.00;99.90;;;;;;5052978;28;20181;-64
2022/04/09 03:26:39;;;;;;;11.40;3.87;;;4.90;99.90;;;;;;5053019;28;20185;-63
2022/04/09 03:29:04;;;;;;;14.20;3.77;;;4.80;99.90;;;;;;5053173;28;20660;-64
2022/04/09 03:31:30;;;;;;;13.00;4.30;;;4.70;99.90;;;;;;5052728;28;20191;-63
2022/04/09 03:33:56;;;;;;;11.40;4.07;;;4.70;99.90;;;;;;5052299;28;20258;-63
2022/04/09 03:36:22;;;;;;;15.40;4.70;;;4.60;99.90;;;;;;5053013;28;20201;-63
2022/04/09 03:38:47;;;;;;;15.97;4.70;;;4.60;99.90;;;;;;5052845;28;20636;-64
2022/04/09 03:41:13;;;;;;;17.87;4.23;;;4.60;99.90;;;;;;5053106;28;20177;-64
2022/04/09 03:43:38;;;;;;;9.70;3.87;;;4.60;99.90;;;;;;5052580;28;20256;-64
2022/04/09 03:46:04;;;;;;;10.40;4.00;;;4.50;99.90;;;;;;5052865;28;20235;-64
2022/04/09 03:48:30;;;;;;;12.20;4.37;;;4.50;99.90;;;;;;5054344;28;20201;-64
2022/04/09 03:50:55;;;;;;;13.10;4.50;;;4.50;99.90;;;;;;5057049;28;20605;-64
2022/04/09 03:53:21;;;;;;;14.10;4.60;;;4.40;99.90;;;;;;5056555;28;20226;-64
2022/04/09 03:55:47;;;;;;;10.37;4.23;;;4.40;99.90;;;;;;5056245;28;20228;-63
2022/04/09 03:58:15;;;;;;;11.63;4.77;;;4.40;99.90;;;;;;5056619;28;20177;-63
2022/04/09 04:00:41;;;;;;;12.50;4.23;;;4.40;99.90;;;;;;5056616;28;20170;-62
2022/04/09 04:03:09;;;;;;;16.83;4.63;;;4.40;99.90;;;;;;5056397;28;20516;-63
2022/04/09 04:05:36;;;;;;;13.87;4.77;;;4.40;99.90;;;;;;5056326;28;20166;-63
2022/04/09 04:08:03;;;;;;;16.90;4.93;;;4.40;99.90;;;;;;5056602;28;20173;-64
2022/04/09 04:10:29;;;;;;;13.27;4.93;;;4.40;99.90;;;;;;5056688;28;20191;-64
2022/04/09 04:12:55;;;;;;;13.40;5.40;;;4.40;99.90;;;;;;5056272;28;20173;-63
2022/04/09 04:15:20;;;;;;;10.53;4.67;;;4.40;99.90;;;;;;5056452;28;20216;-63
2022/04/09 04:17:46;;;;;;;12.30;4.83;;;4.60;99.90;;;;;;5056233;28;20243;-64
2022/04/09 04:20:12;;;;;;;13.77;5.80;;;4.70;99.90;;;;;;5056193;28;20185;-63
2022/04/09 04:22:38;;;;;;;12.97;4.53;;;4.70;99.90;;;;;;5056189;28;20195;-63
2022/04/09 04:25:05;;;;;;;10.10;4.23;;;4.80;99.90;;;;;;5056316;28;20170;-64
2022/04/09 04:27:31;;;;;;;10.47;4.53;;;4.90;99.90;;;;;;5056065;28;20177;-63
2022/04/09 04:30:01;;;;;;;10.37;4.00;;;5.00;99.90;;;;;;5055629;28;20177;-64
2022/04/09 04:32:27;;;;;;;7.33;3.90;;;5.10;99.90;;;;;;5055784;28;20188;-63
2022/04/09 04:34:52;;;;;;;10.33;4.17;;;5.10;99.90;;;;;;5056106;28;20232;-63
2022/04/09 04:37:18;;;;;;;9.77;4.30;;;5.10;99.90;;;;;;5056097;28;20621;-63
2022/04/09 04:39:44;;;;;;;13.20;4.57;;;5.20;99.90;;;;;;5056114;28;20319;-64
2022/04/09 04:42:09;;;;;;;15.03;4.60;;;5.20;99.90;;;;;;5055995;28;20628;-64
2022/04/09 04:44:35;;;;;;;11.37;4.27;;;5.10;99.90;;;;;;5055560;28;20608;-63
2022/04/09 04:47:01;;;;;;;12.70;4.30;;;5.10;99.90;;;;;;5055636;28;20263;-63
2022/04/09 04:49:26;;;;;;;13.27;4.50;;;5.00;99.90;;;;;;5055475;28;20262;-63
2022/04/09 04:51:52;;;;;;;20.13;4.83;;;5.00;99.90;;;;;;5055690;28;20227;-63
2022/04/09 04:54:17;;;;;;;17.80;4.87;;;5.00;99.90;;;;;;5055739;28;20209;-63
2022/04/09 04:56:43;;;;;;;13.40;4.67;;;5.00;99.90;;;;;;5055476;28;20213;-64
2022/04/09 04:59:09;;;;;;;18.43;5.20;;;5.00;99.90;;;;;;5054774;28;20276;-64
2022/04/09 05:01:37;;;;;;;16.67;4.33;;;5.00;99.90;;;;;;5055155;28;20179;-63
2022/04/09 05:04:03;;;;;;;10.70;5.17;;;5.00;99.90;;;;;;5055580;28;20181;-62
2022/04/09 05:06:29;;;;;;;14.43;4.87;;;4.90;99.90;;;;;;5055460;28;20255;-63
2022/04/09 05:08:55;;;;;;;18.33;4.90;;;4.90;99.90;;;;;;5055585;28;20261;-64
2022/04/09 05:11:21;;;;;;;13.27;4.43;;;4.90;99.90;;;;;;5055490;28;20180;-64
2022/04/09 05:13:47;;;;;;;14.97;4.43;;;4.90;99.90;;;;;;5055074;28;20217;-65
2022/04/09 05:16:13;;;;;;;18.27;4.40;;;4.90;99.90;;;;;;5055188;28;20222;-63
2022/04/09 05:18:38;;;;;;;19.10;4.27;;;5.00;99.90;;;;;;5055007;28;20264;-64
2022/04/09 05:21:04;;;;;;;15.63;4.87;;;5.00;99.90;;;;;;5055061;28;20222;-63
2022/04/09 05:23:30;;;;;;;12.57;5.10;;;5.10;99.90;;;;;;5055463;28;20173;-63
2022/04/09 05:25:56;;;;;;;18.07;4.57;;;5.30;99.90;;;;;;5054904;28;20633;-63
2022/04/09 05:28:21;;;;;;;16.87;4.60;;;5.50;99.90;;;;;;5054878;28;20189;-63
2022/04/09 05:30:50;;;;;;;13.60;4.60;;;5.70;99.90;;;;;;5054686;28;20172;-63
2022/04/09 05:33:18;;;;;;;11.80;4.77;;;5.90;99.90;;;;;;5055354;28;20177;-63
2022/04/09 05:35:44;;;;;;;15.93;5.07;;;6.10;99.90;;;;;;5054920;28;20204;-63
2022/04/09 05:38:10;;;;;;;28.20;6.43;;;6.50;99.90;;;;;;5054903;28;20173;-64
2022/04/09 05:40:36;;;;;;;13.90;4.20;;;6.90;99.90;;;;;;5054741;28;20230;-63
2022/04/09 05:43:03;;;;;;;20.30;5.10;;;7.40;99.90;;;;;;5054443;28;20169;-64
2022/04/09 05:45:29;;;;;;;13.33;4.40;;;7.70;99.90;;;;;;5054391;28;20197;-64
2022/04/09 05:47:54;;;;;;;12.33;4.50;;;7.90;99.90;;;;;;5054778;28;20180;-64
2022/04/09 05:50:20;;;;;;;16.83;4.63;;;8.20;99.90;;;;;;5054647;28;20633;-63
2022/04/09 05:52:46;;;;;;;14.47;4.03;;;8.40;99.90;;;;;;5054455;28;20181;-65
2022/04/09 05:55:12;;;;;;;9.97;4.33;;;8.60;99.90;;;;;;5054096;28;20289;-64
2022/04/09 05:57:38;;;;;;;10.70;5.03;;;9.00;99.90;;;;;;5054004;28;20688;-64
2022/04/09 06:00:09;;;;;;;15.73;5.00;;;9.40;99.90;;;;;;5054301;28;20184;-64
2022/04/09 06:02:37;;;;;;;17.20;5.03;;;9.80;99.90;;;;;;5054505;28;20177;-64
2022/04/09 06:05:03;;;;;;;12.77;4.27;;;10.80;99.90;;;;;;5054415;28;20182;-64
2022/04/09 06:07:29;;;;;;;15.73;4.87;;;11.50;98.90;;;;;;5054485;28;20211;-63
2022/04/09 06:09:54;;;;;;;12.67;4.73;;;12.30;96.20;;;;;;5054003;28;20221;-64
2022/04/09 06:12:20;;;;;;;11.50;4.00;;;12.90;94.40;;;;;;5052555;28;20176;-64
2022/04/09 06:14:46;;;;;;;12.17;5.13;;;13.20;93.20;;;;;;5054174;28;20604;-64
2022/04/09 06:17:11;;;;;;;8.37;4.13;;;13.70;91.00;;;;;;5054082;28;20196;-63
2022/04/09 06:19:37;;;;;;;11.10;4.90;;;14.00;90.00;;;;;;5054107;28;20185;-64
2022/04/09 06:22:03;;;;;;;13.77;4.63;;;13.90;87.40;;;;;;5053979;28;20177;-65
2022/04/09 06:24:29;;;;;;;12.40;4.57;;;15.10;86.50;;;;;;5053772;28;20576;-65
2022/04/09 06:26:55;;;;;;;9.90;3.80;;;15.50;78.40;;;;;;5053118;28;20231;-64
2022/04/09 06:29:20;;;;;;;11.53;4.07;;;15.50;78.00;;;;;;5053932;28;20169;-65
2022/04/09 06:31:47;;;;;;;11.53;3.80;;;15.70;76.40;;;;;;5052423;28;20231;-66
2022/04/09 06:34:16;;;;;;;11.57;4.20;;;16.00;72.50;;;;;;5053848;28;20213;-64
2022/04/09 06:36:42;;;;;;;10.03;4.10;;;15.60;75.50;;;;;;5053804;28;20227;-65
2022/04/09 06:39:07;;;;;;;10.00;4.13;;;16.50;72.80;;;;;;5053438;28;20177;-65
2022/04/09 06:41:33;;;;;;;9.13;4.00;;;16.60;99.90;;;;;;5052920;28;20234;-65
2022/04/09 06:43:59;;;;;;;10.83;3.90;;;17.30;99.90;;;;;;5053035;28;20177;-65
2022/04/09 06:46:25;;;;;;;11.50;4.00;;;17.60;99.90;;;;;;5053200;28;20197;-66
2022/04/09 06:48:51;;;;;;;9.38;4.30;;;17.80;99.90;;;;;;5053161;28;20177;-66
2022/04/09 06:51:17;;;;;;;8.40;3.90;;;18.00;99.90;;;;;;5053431;28;20158;-65
2022/04/09 06:53:43;;;;;;;9.88;3.92;;;18.30;99.90;;;;;;5053196;28;20204;-65
2022/04/09 06:56:08;;;;;;;12.35;4.15;;;18.30;99.90;;;;;;5052317;28;20220;-66
2022/04/09 06:58:34;;;;;;;9.45;4.45;;;18.20;99.90;;;;;;5053047;28;20647;-66
2022/04/09 07:01:03;;;;;;;11.55;3.95;;;18.10;99.90;;;;;;5053120;28;20242;-66
2022/04/09 07:03:29;;;;;;;11.38;4.25;;;18.60;99.90;;;;;;5053125;28;20165;-66
2022/04/09 07:05:55;;;;;;;10.65;3.88;;;18.50;99.90;;;;;;5053094;28;20342;-65
2022/04/09 07:08:21;;;;;;;8.93;3.80;;;18.90;99.90;;;;;;5052745;28;20161;-65
2022/04/09 07:10:46;;;;;;;9.73;4.20;;;19.10;99.90;;;;;;5052423;28;20536;-66
2022/04/09 07:13:12;;;;;;;10.50;4.03;;;20.60;99.90;;;;;;5053003;28;20628;-66
2022/04/09 07:15:38;;;;;;;9.07;4.18;;;21.20;99.90;;;;;;5052799;28;20288;-64
2022/04/09 07:18:04;;;;;;;9.38;4.25;;;22.10;99.90;;;;;;5053021;28;20189;-65
2022/04/09 07:20:30;;;;;;;10.35;4.07;;;22.40;99.90;;;;;;5052941;28;20177;-66
2022/04/09 07:22:56;;;;;;;8.20;4.07;;;22.90;99.90;;;;;;5052456;28;20644;-66
2022/04/09 07:25:22;;;;;;;9.50;4.07;;;23.30;99.90;;;;;;5052135;28;20189;-66
2022/04/09 07:27:48;;;;;;;10.85;4.20;;;23.40;99.90;;;;;;5053172;28;20184;-66
2022/04/09 07:30:18;;;;;;;10.90;4.30;;;24.00;99.90;;;;;;5052512;28;20652;-66
2022/04/09 07:32:45;;;;;;;9.10;3.85;;;24.40;99.90;;;;;;5052603;28;20238;-67
2022/04/09 07:35:12;;;;;;;10.75;4.78;;;24.30;99.90;;;;;;5052604;28;20205;-67
2022/04/09 07:37:50;;;;;;;8.27;3.95;;;24.10;99.90;;;;;;5052586;28;20176;-67
2022/04/09 07:40:17;;;;;;;8.95;3.40;;;24.30;99.90;;;;;;5052198;28;20200;-67
2022/04/09 07:42:44;;;;;;;8.82;3.53;;;23.90;99.90;;;;;;5052551;28;20180;-66
2022/04/09 07:45:10;;;;;;;7.13;3.67;;;24.60;99.90;;;;;;5052835;28;20193;-67
2022/04/09 07:47:36;;;;;;;8.30;3.78;;;24.40;99.90;;;;;;5052397;28;20528;-67
2022/04/09 07:50:05;;;;;;;11.20;4.20;;;24.40;99.90;;;;;;5051926;28;20493;-67
2022/04/09 07:52:30;;;;;;;10.95;4.30;;;24.30;99.90;;;;;;5052350;28;20180;-66
2022/04/09 07:54:57;;;;;;;8.77;4.00;;;24.70;99.90;;;;;;5051620;28;20208;-67
2022/04/09 07:57:24;;;;;;;12.73;4.07;;;24.70;99.90;;;;;;5052578;28;20185;-66
2022/04/09 07:59:50;;;;;;;8.13;3.60;;;24.90;99.90;;;;;;5051752;28;20177;-68
2022/04/09 08:02:15;;;;;;;9.05;4.00;;;24.50;97.20;;;;;;5052582;28;20251;-67
2022/04/09 08:04:41;;;;;;;8.70;3.80;;;24.50;97.70;;;;;;5052420;28;20687;-66
2022/04/09 08:07:06;;;;;;;7.75;3.88;;;23.30;98.00;;;;;;5051788;28;20561;-66
2022/04/09 08:09:32;;;;;;;9.07;4.30;;;23.90;98.40;;;;;;5051798;28;20177;-67
2022/04/09 08:11:57;;;;;;;12.98;5.53;;;24.20;99.90;;;;;;5052541;28;20189;-67
2022/04/09 08:14:25;;;;;;;7.72;3.50;;;24.70;97.00;;;;;;5052300;28;20672;-66
2022/04/09 08:16:50;;;;;;;6.90;3.58;;;24.00;96.70;;;;;;5052503;28;20189;-67
2022/04/09 08:19:18;;;;;;;8.95;3.50;;;24.20;95.40;;;;;;5052430;28;20215;-67
2022/04/09 08:21:44;;;;;;;10.70;4.32;;;24.70;94.30;;;;;;5052114;28;20264;-66
2022/04/09 08:24:10;;;;;;;7.95;3.92;;;24.10;94.00;;;;;;5051452;28;20641;-67
2022/04/09 08:26:36;;;;;;;5.90;3.25;;;23.90;93.50;;;;;;5052310;28;20699;-65
2022/04/09 08:29:03;;;;;;;8.38;3.03;;;23.00;94.00;;;;;;5052233;28;20264;-64
2022/04/09 08:31:28;;;;;;;5.80;3.00;;;21.30;96.50;;;;;;5052165;28;20234;-64
2022/04/09 08:33:54;;;;;;;7.38;3.08;;;21.00;98.10;;;;;;5052799;28;20672;-64
2022/04/09 08:36:20;;;;;;;6.63;3.05;;;19.90;99.90;;;;;;5053995;28;20173;-64
2022/04/09 08:38:45;;;;;;;9.02;3.13;;;19.10;99.90;;;;;;5054212;28;20276;-63
2022/04/09 08:41:14;;;;;;;6.03;2.75;;;17.90;99.90;;;;;;5055703;28;20169;-62
2022/04/09 08:43:40;;;;;;;6.40;3.38;;;16.80;99.90;;;;;;5055580;28;20659;-64
2022/04/09 08:46:05;;;;;;;5.43;2.97;;;16.00;99.90;;;;;;5055729;28;20278;-65
2022/04/09 08:48:32;;;;;;;4.55;2.75;;;16.50;99.90;;;;;;5055244;28;20266;-65
2022/04/09 08:50:59;;;;;;;10.65;2.92;;;17.20;99.90;;;;;;5055145;28;20181;-64
2022/04/09 08:53:25;;;;;;;8.38;2.90;;;17.70;99.90;;;;;;5054909;28;20170;-64
2022/04/09 08:55:51;;;;;;;7.47;3.00;;;17.50;99.90;;;;;;5055089;28;20225;-65
2022/04/09 08:58:17;;;;;;;5.40;2.80;;;17.50;99.90;;;;;;5055034;28;20188;-65
2022/04/09 09:00:45;;;;;;;7.30;2.70;;;18.50;99.90;;;;;;5055042;28;20177;-65
2022/04/09 09:03:14;;;;;;;7.25;2.92;;;18.10;99.90;;;;;;5055432;28;20157;-65
2022/04/09 09:05:42;;;;;;;5.72;3.08;;;19.00;99.90;;;;;;5054441;28;20217;-64
2022/04/09 09:08:09;;;;;;;5.97;3.20;;;19.60;99.90;;;;;;5054814;28;20188;-65
2022/04/09 09:10:36;;;;;;;4.32;2.75;;;19.50;99.90;;;;;;5055336;28;20184;-65
2022/04/09 09:13:04;;;;;;;7.80;3.40;;;18.80;99.90;;;;;;5055142;28;20211;-63
2022/04/09 09:15:43;;;;;;;8.38;3.55;;;18.30;99.90;;;;;;5055063;28;20282;-63
2022/04/09 09:18:21;;;;;;;5.97;3.20;;;17.60;99.90;;;;;;5055130;28;20184;-65
2022/04/09 09:20:54;;;;;;;8.30;3.20;;;17.40;99.90;;;;;;5054555;28;20193;-63
2022/04/09 09:23:24;;;;;;;5.40;3.13;;;17.00;99.90;;;;;;5055111;28;20177;-64
2022/04/09 09:25:52;;;;;;;6.70;3.33;;;16.80;99.90;;;;;;5054525;28;20573;-66
2022/04/09 09:28:26;;;;;;;5.65;2.80;;;16.90;99.90;;;;;;5054704;28;20178;-64
2022/04/09 09:30:52;;;;;;;7.20;3.20;;;18.60;99.90;;;;;;5054880;28;20168;-65
2022/04/09 09:33:18;;;;;;;3.85;3.15;;;19.80;99.90;;;;;;5054652;28;20176;-64
2022/04/09 09:35:51;;;;;;;5.82;3.33;;;19.70;99.90;;;;;;5053975;28;20216;-63
2022/04/09 09:38:27;;;;;;;8.23;3.47;;;18.30;99.90;;;;;;5054478;28;20176;-64
2022/04/09 09:40:53;;;;;;;7.85;3.17;;;17.20;99.90;;;;;;5054460;28;20172;-65
2022/04/09 09:43:21;;;;;;;6.72;3.00;;;17.60;99.90;;;;;;5054853;28;20174;-64
2022/04/09 09:45:47;;;;;;;6.50;3.03;;;18.10;99.90;;;;;;5053464;28;20249;-65
2022/04/09 09:48:23;;;;;;;6.38;3.22;;;18.50;99.90;;;;;;5054216;28;20172;-65
2022/04/09 09:50:50;;;;;;;7.13;2.80;;;18.60;99.90;;;;;;5053731;28;20172;-65
2022/04/09 09:53:28;;;;;;;6.57;2.90;;;19.10;99.90;;;;;;5054277;28;20174;-63
2022/04/09 09:55:55;;;;;;;5.50;3.22;;;18.10;99.90;;;;;;5052896;28;20278;-63
2022/04/09 09:58:22;;;;;;;6.65;3.00;;;17.20;99.90;;;;;;5054245;28;20230;-64
2022/04/09 10:00:48;;;;;;;7.00;3.35;;;17.10;99.90;;;;;;5054175;28;20232;-65
2022/04/09 10:03:16;;;;;;;5.30;2.97;;;17.00;99.90;;;;;;5052356;28;20173;-67
2022/04/09 10:05:42;;;;;;;4.20;3.10;;;17.80;99.90;;;;;;5052330;28;20219;-66
2022/04/09 10:08:08;;;;;;;5.25;2.80;;;18.70;99.90;;;;;;5053961;28;20702;-66
2022/04/09 10:10:38;;;;;;;6.80;2.90;;;19.10;99.90;;;;;;5053568;28;20207;-64
2022/04/09 10:13:04;;;;;;;7.32;2.90;;;18.00;99.90;;;;;;5054171;28;20226;-65
2022/04/09 10:15:31;;;;;;;6.05;3.30;;;17.30;99.90;;;;;;5054135;28;20204;-63
2022/04/09 10:17:59;;;;;;;4.57;2.80;;;16.70;99.90;;;;;;5053928;28;20169;-65
2022/04/09 10:20:26;;;;;;;5.13;2.95;;;15.80;99.90;;;;;;5053385;28;20169;-64
2022/04/09 10:22:55;;;;;;;6.70;2.77;;;15.40;99.90;;;;;;5053626;28;20191;-64
2022/04/09 10:25:24;;;;;;;6.23;3.17;;;14.80;99.90;;;;;;5053747;28;20158;-63
2022/04/09 10:27:53;;;;;;;6.53;3.20;;;14.30;99.90;;;;;;5053844;28;20161;-63
2022/04/09 10:30:24;;;;;;;6.73;3.33;;;13.70;99.90;;;;;;5053312;28;20668;-64
2022/04/09 10:32:55;;;;;;;6.80;3.50;;;13.10;99.90;;;;;;5053312;28;20605;-66
2022/04/09 10:35:40;;;;;;;9.10;3.23;;;12.90;99.90;;;;;;5052957;28;20248;-64
2022/04/09 10:38:14;;;;;;;4.97;2.90;;;12.40;99.90;;;;;;5053969;28;20177;-64
2022/04/09 10:40:43;;;;;;;6.60;2.80;;;11.90;1.00;;;;;;5053617;28;20676;-64
2022/04/09 10:43:21;;;;;;;4.50;2.40;;;11.50;1.00;;;;;;5053057;28;20570;-64
2022/04/09 10:46:05;;;;;;;6.03;2.50;;;11.10;1.00;;;;;;5053215;28;20263;-65
2022/04/09 10:48:36;;;;;;;4.27;2.67;;;11.60;1.00;;;;;;5052902;28;20695;-64
2022/04/09 10:51:04;;;;;;;3.63;2.23;;;12.80;99.90;;;;;;5053220;28;20220;-66
2022/04/09 10:53:48;;;;;;;5.43;3.00;;;14.40;99.90;;;;;;5053167;28;20165;-67
2022/04/09 10:56:24;;;;;;;8.17;2.80;;;15.60;99.90;;;;;;5052775;28;20236;-65
2022/04/09 10:59:29;;;;;;;5.53;2.85;;;16.20;99.90;;;;;;5052975;28;20172;-67
2022/04/09 11:01:55;;;;;;;5.45;2.67;;;17.50;99.90;;;;;;5053088;28;20172;-67
2022/04/09 11:04:27;;;;;;;4.85;2.78;;;18.10;99.90;;;;;;5052532;28;20176;-66
2022/04/09 11:07:02;;;;;;;4.20;2.80;;;18.70;99.90;;;;;;5052431;28;20176;-66
2022/04/09 11:09:44;;;;;;;5.63;3.05;;;19.10;99.90;;;;;;5053176;28;20248;-64
2022/04/09 11:12:15;;;;;;;3.75;2.75;;;18.10;99.90;;;;;;5053074;28;20188;-67
2022/04/09 11:15:05;;;;;;;4.18;2.72;;;17.00;99.90;;;;;;5052501;28;20217;-66
2022/04/09 11:17:45;;;;;;;8.13;3.43;;;15.20;99.90;;;;;;5049936;28;20216;-65
2022/04/09 11:20:12;;;;;;;8.47;3.17;;;14.20;99.90;;;;;;5052685;28;20168;-66
2022/04/09 11:22:40;;;;;;;4.37;2.90;;;13.40;99.90;;;;;;5053039;28;20169;-64
2022/04/09 11:25:18;;;;;;;6.80;3.17;;;12.70;99.90;;;;;;5052549;28;20192;-64
2022/04/09 11:27:43;;;;;;;3.50;3.00;;;12.60;1.00;;;;;;5052309;28;20192;-65
2022/04/09 11:30:10;;;;;;;3.43;3.03;;;13.50;1.00;;;;;;5052856;28;20523;-65
2022/04/09 11:32:36;;;;;;;3.57;2.90;;;14.80;99.90;;;;;;5052173;28;20200;-66
2022/04/09 11:35:10;;;;;;;4.13;2.00;;;15.10;99.90;;;;;;5052579;28;20546;-66
2022/04/09 11:37:39;;;;;;;2.83;1.70;;;14.20;99.90;;;;;;5052965;28;20181;-66
2022/04/09 11:40:07;;;;;;;2.33;1.63;;;13.30;99.90;;;;;;5051725;28;20640;-64
2022/04/09 11:42:55;;;;;;;3.43;1.63;;;12.20;99.90;;;;;;5053023;28;20169;-66
2022/04/09 11:45:28;;;;;;;3.40;1.90;;;11.80;99.90;;;;;;5052199;28;20185;-65
2022/04/09 11:48:03;;;;;;;3.63;2.17;;;11.30;99.90;;;;;;5052058;28;20578;-63
2022/04/09 11:50:31;;;;;;;2.47;2.00;;;11.10;1.00;;;;;;5052337;28;20177;-65
2022/04/09 11:53:10;;;;;;;3.70;2.13;;;11.60;1.00;;;;;;5052682;28;20211;-65
2022/04/09 11:55:36;;;;;;;4.13;2.33;;;13.00;99.90;;;;;;5052280;28;20229;-65
2022/04/09 11:58:01;;;;;;;3.63;2.33;;;14.60;99.90;;;;;;5051929;28;20506;-65
2022/04/09 12:00:30;;;;;;;4.73;2.23;;;15.30;99.90;;;;;;5052279;28;20165;-66
2022/04/09 12:03:02;;;;;;;4.37;2.37;;;15.70;99.90;;;;;;5052314;28;20256;-65
2022/04/09 12:05:37;;;;;;;4.67;2.10;;;16.10;99.90;;;;;;5052024;28;20173;-64
2022/04/09 12:08:05;;;;;;;2.67;1.93;;;15.90;99.90;;;;;;5052489;28;20184;-66
2022/04/09 12:10:31;;;;;;;2.13;1.70;;;16.00;99.90;;;;;;5056004;28;20199;-66
2022/04/09 12:13:07;;;;;;;1.70;1.33;;;16.00;99.90;;;;;;5055741;28;20215;-64
2022/04/09 12:15:34;;;;;;;2.47;1.50;;;15.40;99.90;;;;;;5055840;28;20200;-67
2022/04/09 12:18:04;;;;;;;2.07;1.50;;;14.80;99.90;;;;;;5056611;28;20272;-65
2022/04/09 12:20:35;;;;;;;1.57;1.20;;;14.30;99.90;;;;;;5055323;28;20529;-65
2022/04/09 12:23:03;;;;;;;2.90;1.90;;;13.90;99.90;;;;;;5056239;28;20173;-65
2022/04/09 12:25:37;;;;;;;3.63;1.57;;;13.50;99.90;;;;;;5056104;28;20636;-64
2022/04/09 12:28:03;;;;;;;1.87;1.43;;;13.50;99.90;;;;;;5055325;28;20173;-65
2022/04/09 12:30:42;;;;;;;2.93;1.30;;;13.30;99.90;;;;;;5055946;28;20169;-65
2022/04/09 12:33:12;;;;;;;1.80;1.40;;;13.30;99.90;;;;;;5055908;28;20223;-65
2022/04/09 12:35:40;;;;;;;3.60;1.53;;;13.30;99.90;;;;;;5055334;28;20631;-66
2022/04/09 12:38:06;;;;;;;8.00;5.67;;;13.50;99.90;;;;;;5055368;28;20275;-65
2022/04/09 12:40:32;;;;;;;2.60;1.60;;;13.60;99.90;;;;;;5055549;28;20713;-65
2022/04/09 12:43:03;;;;;;;2.17;1.53;;;13.00;99.90;;;;;;5055554;28;20168;-67
2022/04/09 12:45:28;;;;;;;2.63;1.70;;;12.80;99.90;;;;;;5055196;28;20242;-64
2022/04/09 12:47:57;;;;;;;1.77;1.67;;;12.60;99.90;;;;;;5055411;28;20501;-65
2022/04/09 12:50:28;;;;;;;3.70;1.70;;;12.60;99.90;;;;;;5055509;28;20272;-64